Etusivu
METAR-TAF:

METAR-TAF

Lentoasemat :

Iqaluitin lentoasema

Iqaluit, Nunavut, Kanada

Leveyspiiri: 63-45N, Pituuspiiri: 068-33W, korkeus merenpinnasta: 34 m

Tämänhetkinen sää

Tämä raportti tehtiin 46 minuuttia sitten, kello 20.00 UTC
Tuuli 12 kn luoteesta
Lämpötila -29°C
Kosteus 62%
Ilmanpaine 1026 hPa
Näkyvyys: 48.3 km
Muutamia pilviä 5400 ft:n korkeudessa
Muutamia pilviä 30000 ft:n korkeudessa
matalaa lumituiskua

METAR: CYFB 262000Z 32012KT 30SM DRSN FEW054 FEW300 M29/M34 A3031 RMK SC1CC1 SC TR CC TR SLP271

Aika: 15:46 (20:46 UTC)

Sääennuste

Tämä raportti tehtiin 3 tuntia ja 8 minuuttia sitten, kello 17.38 UTC
Ennuste voimassa 26. päivästä klo 18 UTC - 27. päivään klo 18 UTC
Tuuli 12 kn luoteesta
Näkyvyys: 10 km
Hajanaisia pilviä 5000 ft:n korkeudessa

TAF: CYFB 261738Z 2618/2718 32012KT P6SM SCT050 RMK NXT FCST BY 270000Z

Säähavainnot ja -ennusteet yli 4000 lentoasemalta (METAR- ja TAF-raportit).

Käytössä olevat sääasemat on merkitty karttaan keltaisilla ja punaisilla pisteillä.

Aseta hiiri pisteen päälle nähdäksesi sääaseman nimen.

Klikkaa sitten nähdäksesi säähavainnot ja -ennusteet.

Kartan vaihtaminen: klikkaa mustalla rastilla varustettuja vihreitä pisteitä, niin voit zoomata sisään; viivalla varustettua vihreää pistettä, niin voit zoomata ulos tai vihreitä nuolia, niin pääset viereisille kartoille.


METAR-TAF: